sensor_id;sensor_type;location;lat;lon;timestamp;P1;durP1;ratioP1;P2;durP2;ratioP2
946;SDS011;460;48.734;9.152;2023-04-25T00:02:03;1.50;;;0.90;;
946;SDS011;460;48.734;9.152;2023-04-25T00:04:31;0.90;;;0.90;;
946;SDS011;460;48.734;9.152;2023-04-25T00:06:59;1.00;;;1.00;;
946;SDS011;460;48.734;9.152;2023-04-25T00:09:27;2.30;;;1.73;;
946;SDS011;460;48.734;9.152;2023-04-25T00:11:54;1.83;;;1.30;;
946;SDS011;460;48.734;9.152;2023-04-25T00:14:21;1.13;;;0.97;;
946;SDS011;460;48.734;9.152;2023-04-25T00:16:49;0.95;;;0.95;;
946;SDS011;460;48.734;9.152;2023-04-25T00:19:16;1.03;;;0.90;;
946;SDS011;460;48.734;9.152;2023-04-25T00:21:43;1.13;;;1.13;;
946;SDS011;460;48.734;9.152;2023-04-25T00:24:11;1.50;;;1.33;;
946;SDS011;460;48.734;9.152;2023-04-25T00:26:38;1.50;;;1.40;;
946;SDS011;460;48.734;9.152;2023-04-25T00:29:04;5.60;;;1.07;;
946;SDS011;460;48.734;9.152;2023-04-25T00:31:31;2.22;;;1.85;;
946;SDS011;460;48.734;9.152;2023-04-25T00:33:59;1.77;;;1.10;;
946;SDS011;460;48.734;9.152;2023-04-25T00:36:26;1.20;;;1.10;;
946;SDS011;460;48.734;9.152;2023-04-25T00:38:53;0.93;;;0.90;;
946;SDS011;460;48.734;9.152;2023-04-25T00:41:20;1.37;;;1.33;;
946;SDS011;460;48.734;9.152;2023-04-25T00:43:47;1.90;;;1.10;;
946;SDS011;460;48.734;9.152;2023-04-25T00:46:14;1.17;;;0.97;;
946;SDS011;460;48.734;9.152;2023-04-25T00:48:41;1.50;;;1.40;;
946;SDS011;460;48.734;9.152;2023-04-25T00:51:09;1.83;;;1.53;;
946;SDS011;460;48.734;9.152;2023-04-25T00:53:40;0.83;;;0.83;;
946;SDS011;460;48.734;9.152;2023-04-25T00:56:06;0.80;;;0.80;;
946;SDS011;460;48.734;9.152;2023-04-25T00:58:34;1.33;;;1.23;;
946;SDS011;460;48.734;9.152;2023-04-25T01:01:01;1.00;;;1.00;;
946;SDS011;460;48.734;9.152;2023-04-25T01:03:28;1.53;;;1.43;;
946;SDS011;460;48.734;9.152;2023-04-25T01:06:00;1.53;;;1.27;;
946;SDS011;460;48.734;9.152;2023-04-25T01:08:29;0.80;;;0.73;;
946;SDS011;460;48.734;9.152;2023-04-25T01:10:56;0.90;;;0.90;;
946;SDS011;460;48.734;9.152;2023-04-25T01:13:24;1.60;;;1.50;;
946;SDS011;460;48.734;9.152;2023-04-25T01:15:52;1.37;;;1.27;;
946;SDS011;460;48.734;9.152;2023-04-25T01:18:20;0.70;;;0.70;;
946;SDS011;460;48.734;9.152;2023-04-25T01:20:47;2.20;;;1.00;;
946;SDS011;460;48.734;9.152;2023-04-25T01:23:20;2.73;;;1.73;;
946;SDS011;460;48.734;9.152;2023-04-25T01:25:49;6.03;;;3.00;;
946;SDS011;460;48.734;9.152;2023-04-25T01:28:17;1.93;;;1.40;;
946;SDS011;460;48.734;9.152;2023-04-25T01:30:44;2.30;;;1.23;;
946;SDS011;460;48.734;9.152;2023-04-25T01:33:13;1.93;;;1.30;;
946;SDS011;460;48.734;9.152;2023-04-25T01:35:41;1.60;;;1.50;;
946;SDS011;460;48.734;9.152;2023-04-25T01:38:09;1.10;;;1.00;;
946;SDS011;460;48.734;9.152;2023-04-25T01:40:39;1.20;;;1.10;;
946;SDS011;460;48.734;9.152;2023-04-25T01:43:07;0.90;;;0.90;;
946;SDS011;460;48.734;9.152;2023-04-25T01:45:36;1.50;;;1.40;;
946;SDS011;460;48.734;9.152;2023-04-25T01:48:07;1.80;;;1.30;;
946;SDS011;460;48.734;9.152;2023-04-25T01:50:34;1.63;;;1.37;;
946;SDS011;460;48.734;9.152;2023-04-25T01:53:02;1.63;;;1.23;;
946;SDS011;460;48.734;9.152;2023-04-25T01:55:31;1.10;;;1.00;;
946;SDS011;460;48.734;9.152;2023-04-25T01:58:00;1.65;;;0.85;;
946;SDS011;460;48.734;9.152;2023-04-25T02:00:30;1.30;;;1.20;;
946;SDS011;460;48.734;9.152;2023-04-25T02:02:58;1.30;;;1.00;;
946;SDS011;460;48.734;9.152;2023-04-25T02:05:25;1.33;;;0.90;;
946;SDS011;460;48.734;9.152;2023-04-25T02:07:52;1.10;;;1.00;;
946;SDS011;460;48.734;9.152;2023-04-25T02:10:19;1.40;;;1.02;;
946;SDS011;460;48.734;9.152;2023-04-25T02:12:46;5.63;;;1.97;;
946;SDS011;460;48.734;9.152;2023-04-25T02:15:14;1.48;;;1.20;;
946;SDS011;460;48.734;9.152;2023-04-25T02:17:41;1.17;;;1.08;;
946;SDS011;460;48.734;9.152;2023-04-25T02:20:10;1.17;;;1.08;;
946;SDS011;460;48.734;9.152;2023-04-25T02:22:38;1.38;;;1.08;;
946;SDS011;460;48.734;9.152;2023-04-25T02:25:05;0.60;;;0.60;;
946;SDS011;460;48.734;9.152;2023-04-25T02:27:34;4.47;;;1.27;;
946;SDS011;460;48.734;9.152;2023-04-25T02:30:02;1.15;;;1.08;;
946;SDS011;460;48.734;9.152;2023-04-25T02:35:01;1.33;;;1.10;;
946;SDS011;460;48.734;9.152;2023-04-25T02:37:29;1.45;;;1.35;;
946;SDS011;460;48.734;9.152;2023-04-25T02:39:56;1.50;;;1.10;;
946;SDS011;460;48.734;9.152;2023-04-25T02:42:23;1.73;;;1.20;;
946;SDS011;460;48.734;9.152;2023-04-25T02:44:50;1.30;;;1.20;;
946;SDS011;460;48.734;9.152;2023-04-25T02:47:18;1.10;;;1.00;;
946;SDS011;460;48.734;9.152;2023-04-25T02:49:47;1.20;;;1.10;;
946;SDS011;460;48.734;9.152;2023-04-25T02:52:14;1.67;;;1.58;;
946;SDS011;460;48.734;9.152;2023-04-25T02:54:43;2.58;;;1.30;;
946;SDS011;460;48.734;9.152;2023-04-25T02:57:10;1.02;;;0.95;;
946;SDS011;460;48.734;9.152;2023-04-25T02:59:37;0.75;;;0.75;;
946;SDS011;460;48.734;9.152;2023-04-25T03:02:04;0.43;;;0.43;;
946;SDS011;460;48.734;9.152;2023-04-25T03:04:32;2.67;;;1.42;;
946;SDS011;460;48.734;9.152;2023-04-25T03:07:01;1.17;;;1.10;;
946;SDS011;460;48.734;9.152;2023-04-25T03:09:29;0.95;;;0.95;;
946;SDS011;460;48.734;9.152;2023-04-25T03:11:56;0.90;;;0.90;;
946;SDS011;460;48.734;9.152;2023-04-25T03:14:23;0.98;;;0.95;;
946;SDS011;460;48.734;9.152;2023-04-25T03:16:50;1.10;;;1.00;;
946;SDS011;460;48.734;9.152;2023-04-25T03:19:17;0.68;;;0.68;;
946;SDS011;460;48.734;9.152;2023-04-25T03:21:44;1.30;;;0.70;;
946;SDS011;460;48.734;9.152;2023-04-25T03:24:12;1.10;;;1.05;;
946;SDS011;460;48.734;9.152;2023-04-25T03:26:39;0.80;;;0.80;;
946;SDS011;460;48.734;9.152;2023-04-25T03:29:06;1.17;;;1.05;;
946;SDS011;460;48.734;9.152;2023-04-25T03:31:32;2.05;;;1.10;;
946;SDS011;460;48.734;9.152;2023-04-25T03:33:59;1.10;;;1.10;;
946;SDS011;460;48.734;9.152;2023-04-25T03:36:26;1.30;;;1.13;;
946;SDS011;460;48.734;9.152;2023-04-25T03:38:53;0.68;;;0.60;;
946;SDS011;460;48.734;9.152;2023-04-25T03:41:21;2.90;;;1.10;;
946;SDS011;460;48.734;9.152;2023-04-25T03:43:48;1.25;;;1.02;;
946;SDS011;460;48.734;9.152;2023-04-25T03:46:14;2.17;;;1.35;;
946;SDS011;460;48.734;9.152;2023-04-25T03:48:41;1.17;;;1.05;;
946;SDS011;460;48.734;9.152;2023-04-25T03:51:08;1.33;;;1.00;;
946;SDS011;460;48.734;9.152;2023-04-25T03:53:35;2.33;;;1.20;;
946;SDS011;460;48.734;9.152;2023-04-25T03:56:02;1.02;;;1.02;;
946;SDS011;460;48.734;9.152;2023-04-25T03:58:30;2.13;;;0.73;;
946;SDS011;460;48.734;9.152;2023-04-25T04:00:57;1.83;;;1.52;;
946;SDS011;460;48.734;9.152;2023-04-25T04:03:23;0.90;;;0.73;;
946;SDS011;460;48.734;9.152;2023-04-25T04:05:50;0.68;;;0.60;;
946;SDS011;460;48.734;9.152;2023-04-25T04:08:17;1.85;;;1.30;;
946;SDS011;460;48.734;9.152;2023-04-25T04:10:44;1.80;;;1.70;;
946;SDS011;460;48.734;9.152;2023-04-25T04:13:11;1.08;;;0.98;;
946;SDS011;460;48.734;9.152;2023-04-25T04:15:39;1.02;;;0.70;;
946;SDS011;460;48.734;9.152;2023-04-25T04:18:06;1.63;;;1.00;;
946;SDS011;460;48.734;9.152;2023-04-25T04:20:32;2.45;;;2.00;;
946;SDS011;460;48.734;9.152;2023-04-25T04:22:59;1.63;;;1.52;;
946;SDS011;460;48.734;9.152;2023-04-25T04:25:26;1.48;;;1.38;;
946;SDS011;460;48.734;9.152;2023-04-25T04:27:53;1.15;;;1.10;;
946;SDS011;460;48.734;9.152;2023-04-25T04:30:21;1.67;;;1.58;;
946;SDS011;460;48.734;9.152;2023-04-25T04:32:50;1.50;;;1.40;;
946;SDS011;460;48.734;9.152;2023-04-25T04:35:17;1.70;;;1.60;;
946;SDS011;460;48.734;9.152;2023-04-25T04:37:44;0.93;;;0.80;;
946;SDS011;460;48.734;9.152;2023-04-25T04:40:11;1.20;;;1.10;;
946;SDS011;460;48.734;9.152;2023-04-25T04:42:40;1.73;;;1.63;;
946;SDS011;460;48.734;9.152;2023-04-25T04:45:07;1.83;;;1.73;;
946;SDS011;460;48.734;9.152;2023-04-25T04:47:35;1.75;;;1.40;;
946;SDS011;460;48.734;9.152;2023-04-25T04:50:03;2.85;;;1.70;;
946;SDS011;460;48.734;9.152;2023-04-25T04:52:34;2.05;;;1.63;;
946;SDS011;460;48.734;9.152;2023-04-25T04:55:01;3.17;;;2.38;;
946;SDS011;460;48.734;9.152;2023-04-25T04:57:29;1.90;;;1.73;;
946;SDS011;460;48.734;9.152;2023-04-25T04:59:58;3.15;;;1.75;;
946;SDS011;460;48.734;9.152;2023-04-25T05:02:25;1.63;;;1.40;;
946;SDS011;460;48.734;9.152;2023-04-25T05:04:52;2.45;;;1.80;;
946;SDS011;460;48.734;9.152;2023-04-25T05:07:20;3.92;;;2.08;;
946;SDS011;460;48.734;9.152;2023-04-25T05:09:47;2.75;;;1.60;;
946;SDS011;460;48.734;9.152;2023-04-25T05:12:14;1.30;;;1.20;;
946;SDS011;460;48.734;9.152;2023-04-25T05:14:40;1.83;;;1.73;;
946;SDS011;460;48.734;9.152;2023-04-25T05:17:07;1.52;;;1.42;;
946;SDS011;460;48.734;9.152;2023-04-25T05:19:35;1.88;;;1.75;;
946;SDS011;460;48.734;9.152;2023-04-25T05:22:01;3.60;;;2.47;;
946;SDS011;460;48.734;9.152;2023-04-25T05:24:30;1.25;;;1.25;;
946;SDS011;460;48.734;9.152;2023-04-25T05:26:56;6.85;;;1.70;;
946;SDS011;460;48.734;9.152;2023-04-25T05:29:23;2.40;;;2.17;;
946;SDS011;460;48.734;9.152;2023-04-25T05:31:50;1.45;;;1.17;;
946;SDS011;460;48.734;9.152;2023-04-25T05:34:28;3.90;;;1.92;;
946;SDS011;460;48.734;9.152;2023-04-25T05:36:55;1.08;;;1.05;;
946;SDS011;460;48.734;9.152;2023-04-25T05:39:21;2.00;;;1.90;;
946;SDS011;460;48.734;9.152;2023-04-25T05:41:50;1.17;;;1.08;;
946;SDS011;460;48.734;9.152;2023-04-25T05:44:16;1.77;;;1.67;;
946;SDS011;460;48.734;9.152;2023-04-25T05:46:43;2.08;;;1.67;;
946;SDS011;460;48.734;9.152;2023-04-25T05:49:10;1.42;;;1.33;;
946;SDS011;460;48.734;9.152;2023-04-25T05:51:37;1.83;;;1.73;;
946;SDS011;460;48.734;9.152;2023-04-25T05:54:03;3.08;;;2.75;;
946;SDS011;460;48.734;9.152;2023-04-25T05:56:30;1.90;;;1.80;;
946;SDS011;460;48.734;9.152;2023-04-25T05:58:58;0.97;;;0.87;;
946;SDS011;460;48.734;9.152;2023-04-25T06:01:26;2.30;;;2.13;;
946;SDS011;460;48.734;9.152;2023-04-25T06:03:52;2.10;;;1.90;;
946;SDS011;460;48.734;9.152;2023-04-25T06:06:19;1.90;;;1.70;;
946;SDS011;460;48.734;9.152;2023-04-25T06:08:46;2.10;;;2.00;;
946;SDS011;460;48.734;9.152;2023-04-25T06:11:13;1.50;;;1.40;;
946;SDS011;460;48.734;9.152;2023-04-25T06:13:39;1.85;;;1.75;;
946;SDS011;460;48.734;9.152;2023-04-25T06:16:08;1.50;;;1.40;;
946;SDS011;460;48.734;9.152;2023-04-25T06:18:34;6.63;;;1.90;;
946;SDS011;460;48.734;9.152;2023-04-25T06:21:01;2.60;;;2.33;;
946;SDS011;460;48.734;9.152;2023-04-25T06:23:28;5.45;;;2.53;;
946;SDS011;460;48.734;9.152;2023-04-25T06:25:55;2.13;;;1.90;;
946;SDS011;460;48.734;9.152;2023-04-25T06:28:21;3.58;;;2.30;;
946;SDS011;460;48.734;9.152;2023-04-25T06:30:49;1.80;;;1.57;;
946;SDS011;460;48.734;9.152;2023-04-25T06:33:17;1.67;;;1.52;;
946;SDS011;460;48.734;9.152;2023-04-25T06:35:45;2.45;;;1.38;;
946;SDS011;460;48.734;9.152;2023-04-25T06:38:11;1.42;;;1.33;;
946;SDS011;460;48.734;9.152;2023-04-25T06:40:38;1.83;;;1.60;;
946;SDS011;460;48.734;9.152;2023-04-25T06:43:05;2.10;;;1.60;;
946;SDS011;460;48.734;9.152;2023-04-25T06:45:32;1.45;;;1.08;;
946;SDS011;460;48.734;9.152;2023-04-25T06:47:59;2.40;;;1.75;;
946;SDS011;460;48.734;9.152;2023-04-25T06:50:27;2.45;;;1.70;;
946;SDS011;460;48.734;9.152;2023-04-25T06:52:54;2.10;;;1.63;;
946;SDS011;460;48.734;9.152;2023-04-25T06:55:21;2.80;;;2.60;;
946;SDS011;460;48.734;9.152;2023-04-25T06:57:47;2.78;;;2.33;;
946;SDS011;460;48.734;9.152;2023-04-25T07:00:14;1.75;;;1.65;;
946;SDS011;460;48.734;9.152;2023-04-25T07:02:42;2.20;;;2.05;;
946;SDS011;460;48.734;9.152;2023-04-25T07:05:09;1.80;;;1.65;;
946;SDS011;460;48.734;9.152;2023-04-25T07:07:37;2.13;;;1.55;;
946;SDS011;460;48.734;9.152;2023-04-25T07:10:04;1.55;;;1.38;;
946;SDS011;460;48.734;9.152;2023-04-25T07:12:31;2.17;;;1.65;;
946;SDS011;460;48.734;9.152;2023-04-25T07:14:58;1.40;;;1.30;;
946;SDS011;460;48.734;9.152;2023-04-25T07:17:30;2.80;;;1.38;;
946;SDS011;460;48.734;9.152;2023-04-25T07:19:58;3.90;;;2.20;;
946;SDS011;460;48.734;9.152;2023-04-25T07:22:24;1.60;;;1.50;;
946;SDS011;460;48.734;9.152;2023-04-25T07:24:53;1.17;;;1.08;;
946;SDS011;460;48.734;9.152;2023-04-25T07:27:20;1.60;;;1.50;;
946;SDS011;460;48.734;9.152;2023-04-25T07:29:47;1.65;;;1.55;;
946;SDS011;460;48.734;9.152;2023-04-25T07:32:14;2.08;;;1.27;;
946;SDS011;460;48.734;9.152;2023-04-25T07:34:41;1.88;;;1.77;;
946;SDS011;460;48.734;9.152;2023-04-25T07:37:08;1.60;;;1.50;;
946;SDS011;460;48.734;9.152;2023-04-25T07:39:34;3.85;;;1.65;;
946;SDS011;460;48.734;9.152;2023-04-25T07:42:03;2.85;;;2.08;;
946;SDS011;460;48.734;9.152;2023-04-25T07:44:32;2.13;;;1.92;;
946;SDS011;460;48.734;9.152;2023-04-25T07:47:03;2.05;;;1.70;;
946;SDS011;460;48.734;9.152;2023-04-25T07:49:32;1.33;;;1.13;;
946;SDS011;460;48.734;9.152;2023-04-25T07:51:58;2.65;;;2.40;;
946;SDS011;460;48.734;9.152;2023-04-25T07:54:25;1.10;;;1.10;;
946;SDS011;460;48.734;9.152;2023-04-25T07:56:52;2.50;;;2.30;;
946;SDS011;460;48.734;9.152;2023-04-25T07:59:27;2.40;;;2.20;;
946;SDS011;460;48.734;9.152;2023-04-25T08:01:54;3.22;;;2.28;;
946;SDS011;460;48.734;9.152;2023-04-25T08:04:22;3.20;;;2.85;;
946;SDS011;460;48.734;9.152;2023-04-25T08:06:51;4.88;;;2.92;;
946;SDS011;460;48.734;9.152;2023-04-25T08:09:19;1.90;;;1.80;;
946;SDS011;460;48.734;9.152;2023-04-25T08:11:46;1.88;;;1.55;;
946;SDS011;460;48.734;9.152;2023-04-25T08:14:13;2.42;;;2.20;;
946;SDS011;460;48.734;9.152;2023-04-25T08:16:41;3.78;;;3.47;;
946;SDS011;460;48.734;9.152;2023-04-25T08:19:08;2.92;;;1.92;;
946;SDS011;460;48.734;9.152;2023-04-25T08:21:36;2.42;;;1.60;;
946;SDS011;460;48.734;9.152;2023-04-25T08:24:02;1.98;;;1.88;;
946;SDS011;460;48.734;9.152;2023-04-25T08:26:29;1.20;;;1.10;;
946;SDS011;460;48.734;9.152;2023-04-25T08:28:57;1.50;;;1.40;;
946;SDS011;460;48.734;9.152;2023-04-25T08:31:24;1.63;;;1.52;;
946;SDS011;460;48.734;9.152;2023-04-25T08:33:52;1.80;;;1.70;;
946;SDS011;460;48.734;9.152;2023-04-25T08:36:19;1.75;;;1.65;;
946;SDS011;460;48.734;9.152;2023-04-25T08:38:46;2.67;;;2.03;;
946;SDS011;460;48.734;9.152;2023-04-25T08:41:12;2.13;;;1.95;;
946;SDS011;460;48.734;9.152;2023-04-25T08:43:41;3.13;;;2.65;;
946;SDS011;460;48.734;9.152;2023-04-25T08:46:08;2.17;;;2.08;;
946;SDS011;460;48.734;9.152;2023-04-25T08:48:37;5.07;;;3.80;;
946;SDS011;460;48.734;9.152;2023-04-25T08:51:08;2.95;;;2.20;;
946;SDS011;460;48.734;9.152;2023-04-25T08:53:40;4.82;;;3.20;;
946;SDS011;460;48.734;9.152;2023-04-25T08:56:08;2.42;;;2.22;;
946;SDS011;460;48.734;9.152;2023-04-25T08:58:38;4.63;;;3.85;;
946;SDS011;460;48.734;9.152;2023-04-25T09:01:06;4.72;;;2.55;;
946;SDS011;460;48.734;9.152;2023-04-25T09:03:33;3.90;;;2.95;;
946;SDS011;460;48.734;9.152;2023-04-25T09:06:00;2.72;;;2.50;;
946;SDS011;460;48.734;9.152;2023-04-25T09:08:28;2.15;;;1.73;;
946;SDS011;460;48.734;9.152;2023-04-25T09:10:55;4.50;;;2.40;;
946;SDS011;460;48.734;9.152;2023-04-25T09:13:25;2.22;;;2.03;;
946;SDS011;460;48.734;9.152;2023-04-25T09:15:54;1.77;;;1.27;;
946;SDS011;460;48.734;9.152;2023-04-25T09:18:22;1.95;;;1.70;;
946;SDS011;460;48.734;9.152;2023-04-25T09:20:51;2.70;;;2.50;;
946;SDS011;460;48.734;9.152;2023-04-25T09:23:19;1.60;;;1.30;;
946;SDS011;460;48.734;9.152;2023-04-25T09:25:48;3.67;;;2.15;;
946;SDS011;460;48.734;9.152;2023-04-25T09:28:16;2.13;;;1.80;;
946;SDS011;460;48.734;9.152;2023-04-25T09:30:54;1.95;;;1.55;;
946;SDS011;460;48.734;9.152;2023-04-25T09:33:27;12.93;;;2.10;;
946;SDS011;460;48.734;9.152;2023-04-25T09:36:01;3.00;;;2.78;;
946;SDS011;460;48.734;9.152;2023-04-25T09:38:30;1.98;;;1.77;;
946;SDS011;460;48.734;9.152;2023-04-25T09:40:58;1.67;;;1.58;;
946;SDS011;460;48.734;9.152;2023-04-25T09:43:26;15.63;;;2.13;;
946;SDS011;460;48.734;9.152;2023-04-25T09:45:53;5.43;;;2.60;;
946;SDS011;460;48.734;9.152;2023-04-25T09:48:25;9.02;;;2.78;;
946;SDS011;460;48.734;9.152;2023-04-25T09:51:05;1.40;;;1.33;;
946;SDS011;460;48.734;9.152;2023-04-25T09:53:33;1.88;;;1.77;;
946;SDS011;460;48.734;9.152;2023-04-25T09:56:03;2.15;;;1.48;;
946;SDS011;460;48.734;9.152;2023-04-25T09:58:32;4.07;;;2.15;;
946;SDS011;460;48.734;9.152;2023-04-25T10:01:00;1.95;;;1.40;;
946;SDS011;460;48.734;9.152;2023-04-25T10:03:29;1.52;;;1.42;;
946;SDS011;460;48.734;9.152;2023-04-25T10:05:57;2.03;;;1.83;;
946;SDS011;460;48.734;9.152;2023-04-25T10:08:26;2.10;;;1.63;;
946;SDS011;460;48.734;9.152;2023-04-25T10:10:58;1.20;;;0.60;;
946;SDS011;460;48.734;9.152;2023-04-25T10:13:27;1.30;;;1.25;;
946;SDS011;460;48.734;9.152;2023-04-25T10:15:56;1.02;;;1.00;;
946;SDS011;460;48.734;9.152;2023-04-25T10:18:24;0.77;;;0.77;;
946;SDS011;460;48.734;9.152;2023-04-25T10:20:52;2.17;;;1.98;;
946;SDS011;460;48.734;9.152;2023-04-25T10:23:20;0.60;;;0.60;;
946;SDS011;460;48.734;9.152;2023-04-25T10:25:47;1.83;;;0.60;;
946;SDS011;460;48.734;9.152;2023-04-25T10:28:15;0.60;;;0.52;;
946;SDS011;460;48.734;9.152;2023-04-25T10:33:37;0.80;;;0.80;;
946;SDS011;460;48.734;9.152;2023-04-25T10:36:09;0.75;;;0.65;;
946;SDS011;460;48.734;9.152;2023-04-25T10:38:37;1.33;;;1.20;;
946;SDS011;460;48.734;9.152;2023-04-25T10:41:05;0.60;;;0.60;;
946;SDS011;460;48.734;9.152;2023-04-25T10:43:34;0.80;;;0.60;;
946;SDS011;460;48.734;9.152;2023-04-25T10:46:02;2.20;;;0.77;;
946;SDS011;460;48.734;9.152;2023-04-25T10:48:43;1.00;;;0.47;;
946;SDS011;460;48.734;9.152;2023-04-25T10:51:15;4.50;;;1.30;;
946;SDS011;460;48.734;9.152;2023-04-25T10:53:43;0.90;;;0.90;;
946;SDS011;460;48.734;9.152;2023-04-25T10:56:11;2.60;;;1.17;;
946;SDS011;460;48.734;9.152;2023-04-25T10:58:41;1.23;;;1.05;;
946;SDS011;460;48.734;9.152;2023-04-25T11:01:09;0.50;;;0.50;;
946;SDS011;460;48.734;9.152;2023-04-25T11:03:39;0.85;;;0.85;;
946;SDS011;460;48.734;9.152;2023-04-25T11:06:09;0.60;;;0.60;;
946;SDS011;460;48.734;9.152;2023-04-25T11:08:47;1.13;;;0.63;;
946;SDS011;460;48.734;9.152;2023-04-25T11:11:15;1.08;;;0.98;;
946;SDS011;460;48.734;9.152;2023-04-25T11:13:43;1.05;;;1.00;;
946;SDS011;460;48.734;9.152;2023-04-25T11:16:10;1.17;;;1.02;;
946;SDS011;460;48.734;9.152;2023-04-25T11:18:37;0.82;;;0.60;;
946;SDS011;460;48.734;9.152;2023-04-25T11:21:08;1.10;;;1.08;;
946;SDS011;460;48.734;9.152;2023-04-25T11:23:35;0.77;;;0.77;;
946;SDS011;460;48.734;9.152;2023-04-25T11:26:02;1.42;;;1.15;;
946;SDS011;460;48.734;9.152;2023-04-25T11:28:29;1.10;;;0.60;;
946;SDS011;460;48.734;9.152;2023-04-25T11:30:56;2.08;;;1.35;;
946;SDS011;460;48.734;9.152;2023-04-25T11:33:23;2.10;;;1.27;;
946;SDS011;460;48.734;9.152;2023-04-25T11:35:51;0.90;;;0.90;;
946;SDS011;460;48.734;9.152;2023-04-25T11:38:21;3.10;;;1.50;;
946;SDS011;460;48.734;9.152;2023-04-25T11:40:49;1.48;;;1.38;;
946;SDS011;460;48.734;9.152;2023-04-25T11:43:17;2.35;;;2.13;;
946;SDS011;460;48.734;9.152;2023-04-25T11:45:46;1.30;;;1.20;;
946;SDS011;460;48.734;9.152;2023-04-25T11:48:14;3.70;;;1.38;;
946;SDS011;460;48.734;9.152;2023-04-25T11:50:40;1.50;;;1.40;;
946;SDS011;460;48.734;9.152;2023-04-25T11:53:07;1.65;;;0.80;;
946;SDS011;460;48.734;9.152;2023-04-25T11:55:36;2.38;;;1.20;;
946;SDS011;460;48.734;9.152;2023-04-25T11:58:04;3.28;;;1.55;;
946;SDS011;460;48.734;9.152;2023-04-25T12:00:33;0.93;;;0.93;;
946;SDS011;460;48.734;9.152;2023-04-25T12:03:00;0.93;;;0.90;;
946;SDS011;460;48.734;9.152;2023-04-25T12:05:28;2.10;;;1.10;;
946;SDS011;460;48.734;9.152;2023-04-25T12:07:58;1.80;;;1.40;;
946;SDS011;460;48.734;9.152;2023-04-25T12:10:38;1.38;;;1.27;;
946;SDS011;460;48.734;9.152;2023-04-25T12:13:18;1.88;;;1.73;;
946;SDS011;460;48.734;9.152;2023-04-25T12:15:46;2.95;;;1.13;;
946;SDS011;460;48.734;9.152;2023-04-25T12:18:13;1.30;;;1.20;;
946;SDS011;460;48.734;9.152;2023-04-25T12:20:41;3.22;;;1.55;;
946;SDS011;460;48.734;9.152;2023-04-25T12:23:08;2.03;;;1.92;;
946;SDS011;460;48.734;9.152;2023-04-25T12:25:38;3.05;;;1.80;;
946;SDS011;460;48.734;9.152;2023-04-25T12:28:10;2.33;;;2.20;;
946;SDS011;460;48.734;9.152;2023-04-25T12:30:51;2.42;;;1.80;;
946;SDS011;460;48.734;9.152;2023-04-25T12:33:22;2.35;;;2.22;;
946;SDS011;460;48.734;9.152;2023-04-25T12:35:51;3.03;;;2.72;;
946;SDS011;460;48.734;9.152;2023-04-25T12:38:22;4.00;;;1.85;;
946;SDS011;460;48.734;9.152;2023-04-25T12:40:51;2.80;;;2.60;;
946;SDS011;460;48.734;9.152;2023-04-25T12:43:18;2.78;;;1.95;;
946;SDS011;460;48.734;9.152;2023-04-25T12:45:47;2.45;;;2.25;;
946;SDS011;460;48.734;9.152;2023-04-25T12:48:15;3.22;;;2.30;;
946;SDS011;460;48.734;9.152;2023-04-25T12:50:42;2.40;;;1.60;;
946;SDS011;460;48.734;9.152;2023-04-25T12:53:09;2.33;;;2.23;;
946;SDS011;460;48.734;9.152;2023-04-25T12:55:36;1.80;;;1.63;;
946;SDS011;460;48.734;9.152;2023-04-25T12:58:04;2.97;;;2.77;;
946;SDS011;460;48.734;9.152;2023-04-25T13:00:31;3.70;;;2.37;;
946;SDS011;460;48.734;9.152;2023-04-25T13:02:58;2.00;;;1.80;;
946;SDS011;460;48.734;9.152;2023-04-25T13:05:25;3.30;;;2.60;;
946;SDS011;460;48.734;9.152;2023-04-25T13:07:52;3.27;;;2.13;;
946;SDS011;460;48.734;9.152;2023-04-25T13:10:18;3.10;;;2.20;;
946;SDS011;460;48.734;9.152;2023-04-25T13:12:46;5.80;;;2.87;;
946;SDS011;460;48.734;9.152;2023-04-25T13:15:14;3.10;;;2.60;;
946;SDS011;460;48.734;9.152;2023-04-25T13:17:41;5.70;;;3.17;;
946;SDS011;460;48.734;9.152;2023-04-25T13:20:08;1.40;;;1.30;;
946;SDS011;460;48.734;9.152;2023-04-25T13:22:37;2.23;;;2.13;;
946;SDS011;460;48.734;9.152;2023-04-25T13:25:04;2.23;;;2.13;;
946;SDS011;460;48.734;9.152;2023-04-25T13:27:32;2.53;;;2.00;;
946;SDS011;460;48.734;9.152;2023-04-25T13:30:00;1.53;;;1.30;;
946;SDS011;460;48.734;9.152;2023-04-25T13:32:33;4.13;;;2.23;;
946;SDS011;460;48.734;9.152;2023-04-25T13:35:01;3.50;;;2.30;;
946;SDS011;460;48.734;9.152;2023-04-25T13:37:28;4.20;;;2.90;;
946;SDS011;460;48.734;9.152;2023-04-25T13:39:55;2.60;;;2.30;;
946;SDS011;460;48.734;9.152;2023-04-25T13:42:22;2.53;;;2.07;;
946;SDS011;460;48.734;9.152;2023-04-25T13:44:49;4.00;;;3.20;;
946;SDS011;460;48.734;9.152;2023-04-25T13:47:16;2.70;;;2.50;;
946;SDS011;460;48.734;9.152;2023-04-25T13:49:44;8.20;;;3.10;;
946;SDS011;460;48.734;9.152;2023-04-25T13:52:11;4.00;;;3.50;;
946;SDS011;460;48.734;9.152;2023-04-25T13:54:38;4.27;;;2.10;;
946;SDS011;460;48.734;9.152;2023-04-25T13:57:05;5.40;;;4.23;;
946;SDS011;460;48.734;9.152;2023-04-25T13:59:32;3.80;;;3.17;;
946;SDS011;460;48.734;9.152;2023-04-25T14:01:59;3.63;;;2.47;;
946;SDS011;460;48.734;9.152;2023-04-25T14:04:26;4.03;;;3.00;;
946;SDS011;460;48.734;9.152;2023-04-25T14:06:55;2.87;;;2.60;;
946;SDS011;460;48.734;9.152;2023-04-25T14:09:21;3.00;;;2.70;;
946;SDS011;460;48.734;9.152;2023-04-25T14:11:50;2.60;;;2.40;;
946;SDS011;460;48.734;9.152;2023-04-25T14:14:17;3.10;;;2.50;;
946;SDS011;460;48.734;9.152;2023-04-25T14:16:44;3.00;;;2.60;;
946;SDS011;460;48.734;9.152;2023-04-25T14:19:13;2.63;;;2.40;;
946;SDS011;460;48.734;9.152;2023-04-25T14:21:40;6.37;;;3.47;;
946;SDS011;460;48.734;9.152;2023-04-25T14:24:08;3.90;;;3.00;;
946;SDS011;460;48.734;9.152;2023-04-25T14:26:35;3.77;;;2.57;;
946;SDS011;460;48.734;9.152;2023-04-25T14:29:03;4.13;;;2.40;;
946;SDS011;460;48.734;9.152;2023-04-25T14:31:31;2.43;;;2.13;;
946;SDS011;460;48.734;9.152;2023-04-25T14:33:58;2.67;;;2.27;;
946;SDS011;460;48.734;9.152;2023-04-25T14:36:25;3.77;;;3.20;;
946;SDS011;460;48.734;9.152;2023-04-25T14:38:52;6.10;;;2.80;;
946;SDS011;460;48.734;9.152;2023-04-25T14:41:20;2.27;;;2.07;;
946;SDS011;460;48.734;9.152;2023-04-25T14:43:48;2.30;;;1.87;;
946;SDS011;460;48.734;9.152;2023-04-25T14:46:15;1.70;;;1.60;;
946;SDS011;460;48.734;9.152;2023-04-25T14:48:42;2.37;;;1.90;;
946;SDS011;460;48.734;9.152;2023-04-25T14:51:08;3.47;;;1.90;;
946;SDS011;460;48.734;9.152;2023-04-25T14:53:35;1.40;;;1.30;;
946;SDS011;460;48.734;9.152;2023-04-25T14:56:02;2.93;;;1.80;;
946;SDS011;460;48.734;9.152;2023-04-25T14:58:31;1.97;;;1.87;;
946;SDS011;460;48.734;9.152;2023-04-25T15:00:58;2.60;;;2.00;;
946;SDS011;460;48.734;9.152;2023-04-25T15:03:25;2.13;;;1.93;;
946;SDS011;460;48.734;9.152;2023-04-25T15:05:52;1.83;;;1.73;;
946;SDS011;460;48.734;9.152;2023-04-25T15:08:20;1.90;;;1.80;;
946;SDS011;460;48.734;9.152;2023-04-25T15:10:47;1.53;;;1.40;;
946;SDS011;460;48.734;9.152;2023-04-25T15:13:14;2.07;;;1.50;;
946;SDS011;460;48.734;9.152;2023-04-25T15:15:42;4.33;;;2.33;;
946;SDS011;460;48.734;9.152;2023-04-25T15:18:09;1.70;;;1.50;;
946;SDS011;460;48.734;9.152;2023-04-25T15:20:36;3.40;;;2.20;;
946;SDS011;460;48.734;9.152;2023-04-25T15:23:03;2.03;;;1.77;;
946;SDS011;460;48.734;9.152;2023-04-25T15:25:30;1.93;;;1.40;;
946;SDS011;460;48.734;9.152;2023-04-25T15:27:57;1.93;;;1.83;;
946;SDS011;460;48.734;9.152;2023-04-25T15:30:25;1.90;;;1.80;;
946;SDS011;460;48.734;9.152;2023-04-25T15:32:53;5.00;;;2.27;;
946;SDS011;460;48.734;9.152;2023-04-25T15:35:20;1.70;;;1.60;;
946;SDS011;460;48.734;9.152;2023-04-25T15:37:46;3.00;;;2.70;;
946;SDS011;460;48.734;9.152;2023-04-25T15:40:15;5.03;;;3.67;;
946;SDS011;460;48.734;9.152;2023-04-25T15:42:43;1.37;;;1.27;;
946;SDS011;460;48.734;9.152;2023-04-25T15:45:12;4.03;;;2.00;;
946;SDS011;460;48.734;9.152;2023-04-25T15:47:41;2.07;;;1.87;;
946;SDS011;460;48.734;9.152;2023-04-25T15:50:10;1.70;;;1.40;;
946;SDS011;460;48.734;9.152;2023-04-25T15:52:41;1.50;;;1.40;;
946;SDS011;460;48.734;9.152;2023-04-25T15:55:08;1.50;;;1.40;;